Time;durP1;ratioP1;P1;durP2;ratioP2;P2;SDS_P1;SDS_P2;PMS_P1;PMS_P2;Temp;Humidity;BMP_temperature;BMP_pressure;BME280_temperature;BME280_humidity;BME280_pressure;Samples;Min_cycle;Max_cycle;Signal;HPM_P1;HPM_P2
2023/08/16 00:00:09;;;;;;;3.00;2.90;;;18.10;99.90;;;18.60;85.89;101841.88;5062026;28;20079;-71
2023/08/16 00:02:39;;;;;;;;;;;18.20;99.90;;;18.65;85.94;101844.44;5064074;28;20052;-71
2023/08/16 00:05:08;;;;;;;2.92;2.83;;;18.20;99.90;;;18.64;85.66;101848.06;5061001;28;19971;-71
2023/08/16 00:07:37;;;;;;;2.60;2.50;;;18.20;99.90;;;18.60;85.49;101851.72;5060564;28;20056;-71
2023/08/16 00:10:11;;;;;;;2.50;2.40;;;18.20;99.90;;;18.56;86.16;101845.53;5064099;28;20045;-71
2023/08/16 00:12:40;;;;;;;2.67;2.58;;;18.10;99.90;;;18.55;86.36;101845.56;5061120;28;20044;-70
2023/08/16 00:15:09;;;;;;;3.13;3.03;;;18.10;99.90;;;17.94;85.81;101761.09;5069668;28;20056;-71
2023/08/16 00:17:39;;;;;;;3.05;2.95;;;18.00;99.90;;;18.46;85.57;101845.78;5063084;28;20076;-72
2023/08/16 00:20:10;;;;;;;2.78;2.67;;;18.00;99.90;;;18.42;85.74;101846.72;5061261;28;20052;-71
2023/08/16 00:22:38;;;;;;;2.80;2.70;;;17.90;99.90;;;18.25;85.11;101830.09;5063969;28;20135;-71
2023/08/16 00:25:08;;;;;;;2.70;2.60;;;17.90;99.90;;;18.36;85.27;101850.41;5063865;28;20059;-70
2023/08/16 00:27:36;;;;;;;2.63;2.53;;;17.90;99.90;;;18.32;86.26;101859.41;5061001;28;20099;-72
2023/08/16 00:30:06;;;;;;;2.97;2.88;;;17.80;99.90;;;18.28;86.46;101849.66;5063198;28;20127;-70
2023/08/16 00:32:34;;;;;;;3.03;2.92;;;17.80;99.90;;;18.38;86.91;101853.94;5061884;28;20057;-71
2023/08/16 00:35:06;;;;;;;2.70;2.60;;;17.90;99.90;;;18.31;86.53;101859.47;5068850;28;20032;-71
2023/08/16 00:37:34;;;;;;;2.88;2.78;;;17.80;99.90;;;18.33;87.26;101860.31;5058479;28;20087;-71
2023/08/16 00:40:03;;;;;;;2.58;2.47;;;17.90;99.90;;;18.38;89.35;101855.72;5078752;28;20052;-71
2023/08/16 00:42:31;;;;;;;3.08;2.97;;;17.90;99.90;;;18.28;87.78;101862.19;5067389;28;20463;-71
2023/08/16 00:45:00;;;;;;;2.70;2.60;;;17.80;99.90;;;18.04;85.44;101866.22;5060066;28;20532;-72
2023/08/16 00:47:28;;;;;;;2.92;2.83;;;17.60;99.90;;;17.77;86.31;101842.63;5051947;28;20041;-71
2023/08/16 00:49:56;;;;;;;2.83;2.72;;;17.50;99.90;;;17.81;86.48;101874.69;5051931;28;20064;-71
2023/08/16 00:52:26;;;;;;;3.13;3.03;;;17.40;99.90;;;17.80;87.32;101880.06;5056073;28;20098;-71
2023/08/16 00:54:56;;;;;;;2.70;2.60;;;17.30;99.90;;;17.85;88.12;101872.81;5056290;28;20235;-71
2023/08/16 00:57:24;;;;;;;2.90;2.80;;;17.40;99.90;;;17.91;88.61;101870.03;5074195;28;20049;-71
2023/08/16 00:59:53;;;;;;;2.95;2.85;;;17.40;99.90;;;18.02;88.82;101873.41;5062567;28;20037;-71
2023/08/16 01:02:23;;;;;;;2.70;2.60;;;17.50;99.90;;;17.97;87.74;101873.50;5067399;28;20098;-71
2023/08/16 01:04:52;;;;;;;3.40;3.30;;;17.50;99.90;;;17.97;87.66;101869.94;5063534;28;20502;-70
2023/08/16 01:07:20;;;;;;;3.25;3.15;;;17.50;99.90;;;18.15;87.79;101874.06;5059897;28;20069;-71
2023/08/16 01:09:50;;;;;;;2.78;2.67;;;17.60;99.90;;;18.16;88.65;101865.09;5060208;28;20127;-71
2023/08/16 01:12:26;;;;;;;3.03;2.93;;;17.70;99.90;;;18.15;89.01;101872.28;5062840;28;20045;-71
2023/08/16 01:15:00;;;;;;;3.25;3.15;;;17.70;99.90;;;18.04;87.43;101871.56;5057492;28;20063;-71
2023/08/16 01:17:29;;;;;;;2.88;2.78;;;17.60;99.90;;;18.09;86.82;101874.16;5063377;28;20052;-71
2023/08/16 01:20:02;;;;;;;2.72;2.63;;;17.70;99.90;;;18.16;86.23;101883.84;5051768;28;20480;-71
2023/08/16 01:22:46;;;;;;;2.90;2.80;;;17.60;99.90;;;18.20;86.70;101883.75;5060894;28;20055;-71
2023/08/16 01:25:32;;;;;;;3.00;2.90;;;17.70;99.90;;;18.29;86.81;101888.06;5070037;28;20041;-71
2023/08/16 01:28:02;;;;;;;2.80;2.70;;;17.80;99.90;;;18.36;87.32;101889.69;5065237;28;20136;-71
2023/08/16 01:30:31;;;;;;;3.03;2.92;;;17.90;99.90;;;18.35;87.72;101890.63;5079928;28;20053;-71
2023/08/16 01:33:07;;;;;;;3.13;3.03;;;17.90;99.90;;;18.22;88.01;101891.75;5066331;28;20066;-71
2023/08/16 01:35:37;;;;;;;2.90;2.80;;;17.80;99.90;;;18.11;89.97;101897.34;5053850;28;20499;-71
2023/08/16 01:38:08;;;;;;;3.28;3.17;;;17.60;99.90;;;18.27;89.86;101897.94;5061786;28;20134;-71
2023/08/16 01:40:42;;;;;;;3.25;3.15;;;17.80;99.90;;;18.26;89.67;101894.34;5061199;28;20520;-70
2023/08/16 01:43:14;;;;;;;3.00;2.90;;;17.80;99.90;;;18.23;89.52;101890.88;5063914;28;20490;-71
2023/08/16 01:45:42;;;;;;;2.80;2.70;;;17.80;99.90;;;18.18;88.96;101893.63;5070361;28;20049;-71
2023/08/16 01:48:14;;;;;;;2.70;2.60;;;17.70;99.90;;;18.20;89.05;101893.59;5054932;28;20055;-71
2023/08/16 01:50:43;;;;;;;2.72;2.63;;;17.70;99.90;;;18.27;89.64;101893.47;5055023;28;20528;-71
2023/08/16 01:53:12;;;;;;;2.87;2.77;;;17.80;99.90;;;18.29;89.31;101888.94;5056463;28;20395;-71
2023/08/16 01:55:40;;;;;;;2.97;2.88;;;17.80;99.90;;;18.35;89.35;101894.16;5064625;28;20051;-70
2023/08/16 01:58:09;;;;;;;3.08;2.97;;;17.90;99.90;;;18.43;89.58;101902.97;5060538;28;20053;-71
2023/08/16 02:00:39;;;;;;;2.97;2.88;;;17.90;99.90;;;18.45;89.33;101895.78;5071749;28;20139;-71
2023/08/16 02:03:07;;;;;;;2.67;2.58;;;18.00;99.90;;;18.40;88.86;101899.44;5063141;28;20049;-71
2023/08/16 02:05:35;;;;;;;2.42;2.33;;;18.00;99.90;;;18.28;87.85;101903.25;5061278;28;20211;-71
2023/08/16 02:08:04;;;;;;;2.50;2.40;;;17.90;99.90;;;18.22;87.84;101900.69;5054487;28;20075;-71
2023/08/16 02:10:33;;;;;;;2.60;2.50;;;17.80;99.90;;;18.30;88.77;101897.84;5054409;28;20052;-71
2023/08/16 02:13:01;;;;;;;2.92;2.83;;;17.80;99.90;;;18.38;89.37;101898.59;5053035;28;20120;-71
2023/08/16 02:15:29;;;;;;;2.70;2.60;;;17.90;99.90;;;17.93;88.87;101814.66;5059167;28;20045;-71
2023/08/16 02:17:59;;;;;;;2.72;2.63;;;17.90;99.90;;;18.44;89.50;101896.72;5062216;28;20172;-71
2023/08/16 02:20:28;;;;;;;2.80;2.70;;;18.00;99.90;;;18.41;89.01;101896.72;5070818;28;20055;-71
2023/08/16 02:22:56;;;;;;;2.88;2.78;;;18.00;99.90;;;18.50;88.69;101898.38;5065299;28;20074;-70
2023/08/16 02:25:24;;;;;;;2.72;2.63;;;18.00;99.90;;;18.58;88.46;101904.47;5063235;28;20041;-71
2023/08/16 02:27:53;;;;;;;2.67;2.58;;;18.10;99.90;;;18.63;88.38;101906.16;5065959;28;20044;-70
2023/08/16 02:30:21;;;;;;;3.33;3.22;;;18.20;99.90;;;18.50;88.92;101872.47;5069625;28;20444;-71
2023/08/16 02:32:50;;;;;;;2.72;2.63;;;18.20;99.90;;;18.77;89.01;101904.06;5062617;28;20037;-70
2023/08/16 02:35:20;;;;;;;2.83;2.72;;;18.30;99.90;;;18.88;89.00;101896.66;5064840;28;20116;-71
2023/08/16 02:37:48;;;;;;;2.83;2.72;;;18.40;99.90;;;18.91;88.85;101901.09;5058399;28;20045;-71
2023/08/16 02:40:17;;;;;;;2.55;2.45;;;18.40;99.90;;;18.89;88.29;101909.13;5063739;28;20072;-70
2023/08/16 02:42:46;;;;;;;2.75;2.65;;;18.50;99.90;;;18.81;87.96;101904.88;5070925;28;20068;-71
2023/08/16 02:45:15;;;;;;;3.00;2.90;;;18.40;99.90;;;18.80;87.76;101903.09;5064173;28;20041;-72
2023/08/16 02:47:43;;;;;;;2.83;2.72;;;18.40;99.90;;;18.77;87.76;101908.53;5069899;28;20505;-70
2023/08/16 02:50:11;;;;;;;2.60;2.50;;;18.40;99.90;;;18.82;88.07;101896.78;5065456;28;20433;-71
2023/08/16 02:52:41;;;;;;;2.85;2.75;;;18.40;99.90;;;18.81;88.07;101899.50;5062446;28;20072;-70
2023/08/16 02:55:10;;;;;;;3.10;3.00;;;18.40;99.90;;;18.98;88.05;101905.38;5054095;28;20037;-70
2023/08/16 02:57:38;;;;;;;2.80;2.70;;;18.40;99.90;;;18.97;87.45;101908.09;5053952;28;20045;-70
2023/08/16 03:00:10;;;;;;;2.50;2.40;;;18.50;99.90;;;18.90;87.26;101905.56;5053967;28;20121;-71
2023/08/16 03:02:38;;;;;;;2.50;2.40;;;18.50;99.90;;;18.85;87.34;101912.78;5057707;28;20160;-71
2023/08/16 03:05:08;;;;;;;2.80;2.70;;;18.40;99.90;;;18.79;87.34;101912.91;5063258;28;20059;-70
2023/08/16 03:07:37;;;;;;;3.00;2.90;;;18.30;99.90;;;18.66;87.40;101900.69;5064368;28;20068;-70
2023/08/16 03:10:09;;;;;;;2.63;2.53;;;18.30;99.90;;;18.69;87.75;101899.75;5069097;28;20091;-70
2023/08/16 03:12:37;;;;;;;2.45;2.35;;;18.30;99.90;;;18.66;87.77;101911.44;5061608;28;20055;-71
2023/08/16 03:15:07;;;;;;;2.53;2.42;;;18.20;99.90;;;18.72;88.04;101915.75;5053442;28;20045;-70
2023/08/16 03:17:36;;;;;;;3.00;2.90;;;18.30;99.90;;;18.68;88.22;101914.06;5053471;28;20044;-71
2023/08/16 03:20:09;;;;;;;2.90;2.80;;;18.30;99.90;;;18.48;86.78;101922.53;5059903;28;20052;-70
2023/08/16 03:22:38;;;;;;;2.58;2.47;;;18.10;99.90;;;18.12;85.03;101914.31;5059373;28;20314;-71
2023/08/16 03:25:09;;;;;;;2.72;2.63;;;17.80;99.90;;;17.88;86.11;101918.31;5059319;28;20053;-70
2023/08/16 03:27:37;;;;;;;2.80;2.70;;;17.50;99.90;;;17.89;87.21;101909.34;5076751;28;20060;-71
2023/08/16 03:30:08;;;;;;;3.03;2.92;;;17.40;99.90;;;17.88;87.33;101918.31;5064096;28;20049;-71
2023/08/16 03:32:37;;;;;;;;;;;17.40;99.90;;;17.93;87.10;101919.09;5060819;28;20072;-71
2023/08/16 03:35:06;;;;;;;2.50;2.40;;;17.40;99.90;;;17.79;86.07;101919.31;5063860;28;20207;-72
2023/08/16 03:37:35;;;;;;;3.15;3.05;;;17.40;99.90;;;17.81;86.89;101930.00;5062319;28;20059;-71
2023/08/16 03:40:06;;;;;;;2.77;2.67;;;17.30;99.90;;;17.74;86.50;101929.25;5069400;28;20056;-71
2023/08/16 03:42:36;;;;;;;2.78;2.67;;;17.30;99.90;;;17.58;86.70;101932.19;5063287;28;20284;-72
2023/08/16 03:45:06;;;;;;;3.08;2.97;;;17.20;99.90;;;17.53;86.77;101928.69;5061465;28;20098;-71
2023/08/16 03:47:36;;;;;;;3.20;3.10;;;17.10;99.90;;;17.34;86.39;101927.19;5063675;28;20437;-71
2023/08/16 03:50:05;;;;;;;2.60;2.50;;;16.90;99.90;;;17.20;86.45;101926.50;5052351;28;20425;-70
2023/08/16 03:52:34;;;;;;;2.97;2.88;;;16.80;99.90;;;17.30;87.09;101933.50;5052640;28;20052;-70
2023/08/16 03:55:02;;;;;;;2.50;2.40;;;16.80;99.90;;;17.23;86.70;101921.13;5061866;28;20057;-71
2023/08/16 03:57:31;;;;;;;3.03;2.92;;;16.80;99.90;;;17.29;87.17;101940.63;5052552;28;20110;-70
2023/08/16 04:00:00;;;;;;;3.00;2.90;;;16.80;99.90;;;17.25;87.36;101933.56;5067221;28;20075;-70
2023/08/16 04:02:29;;;;;;;3.30;3.20;;;16.80;99.90;;;17.23;87.61;101935.34;5063014;28;20122;-71
2023/08/16 04:05:09;;;;;;;2.97;2.88;;;16.80;99.90;;;17.28;87.94;101922.81;5061346;28;20071;-71
2023/08/16 04:07:38;;;;;;;3.22;3.13;;;16.80;99.90;;;17.33;87.83;101938.78;5061264;28;20045;-71
2023/08/16 04:10:08;;;;;;;3.47;3.38;;;16.90;99.90;;;17.35;87.86;101928.94;5062918;28;20044;-72
2023/08/16 04:12:37;;;;;;;2.85;2.75;;;16.90;99.90;;;17.34;87.56;101930.75;5062447;28;20080;-72
2023/08/16 04:15:09;;;;;;;3.13;3.03;;;16.90;99.90;;;17.25;87.30;101925.53;5061784;28;20044;-71
2023/08/16 04:17:38;;;;;;;3.22;3.13;;;16.80;99.90;;;17.17;88.29;101927.41;5063814;28;20044;-70
2023/08/16 04:20:08;;;;;;;3.15;3.05;;;16.70;99.90;;;17.22;88.92;101930.94;5067106;28;20514;-71
2023/08/16 04:22:36;;;;;;;2.90;2.80;;;16.70;99.90;;;17.10;88.85;101918.63;5075732;28;20106;-70
2023/08/16 04:25:06;;;;;;;3.20;3.10;;;16.70;99.90;;;17.04;88.63;101916.03;5063133;28;20044;-70
2023/08/16 04:27:35;;;;;;;2.70;2.60;;;16.70;99.90;;;17.08;88.82;101927.56;5061328;28;20057;-70
2023/08/16 04:30:03;;;;;;;2.70;2.60;;;16.60;99.90;;;17.10;89.04;101923.97;5069006;28;20520;-71
2023/08/16 04:32:33;;;;;;;2.70;2.60;;;16.70;99.90;;;17.27;88.92;101918.38;5057520;28;20052;-72
2023/08/16 04:35:02;;;;;;;2.67;2.57;;;16.80;99.90;;;17.51;88.56;101919.81;5078211;28;20053;-72
2023/08/16 04:37:31;;;;;;;2.80;2.70;;;17.00;99.90;;;17.51;87.96;101927.84;5076232;28;20300;-73
2023/08/16 04:40:00;;;;;;;2.70;2.60;;;17.10;99.90;;;17.57;87.77;101925.97;5058672;28;20040;-71
2023/08/16 04:42:31;;;;;;;3.15;3.05;;;17.10;99.90;;;17.66;87.92;101925.81;5067644;28;20514;-70
2023/08/16 04:45:03;;;;;;;3.28;3.17;;;17.20;99.90;;;17.84;88.27;101925.50;5061481;28;20052;-72
2023/08/16 04:47:34;;;;;;;2.80;2.70;;;17.40;99.90;;;17.97;88.98;101924.38;5058316;28;20059;-70
2023/08/16 04:50:06;;;;;;;2.70;2.60;;;17.60;99.90;;;18.13;88.92;101929.44;5058568;28;20422;-71
2023/08/16 04:52:36;;;;;;;2.70;2.60;;;17.70;99.90;;;18.31;89.64;101923.75;5059376;28;20126;-70
2023/08/16 04:55:06;;;;;;;2.83;2.72;;;17.90;99.90;;;18.49;89.45;101924.28;5062413;28;20094;-70
2023/08/16 04:57:36;;;;;;;2.80;2.70;;;18.10;99.90;;;18.59;89.33;101928.56;5056365;28;20152;-71
2023/08/16 05:00:07;;;;;;;2.60;2.50;;;18.20;99.90;;;18.49;89.02;101921.63;5072624;28;20135;-71
2023/08/16 05:02:43;;;;;;;2.78;2.67;;;18.20;99.90;;;18.46;87.56;101939.56;5061687;28;20056;-71
2023/08/16 05:05:13;;;;;;;2.63;2.53;;;18.20;99.90;;;18.34;86.89;101932.59;5073614;28;20080;-70
2023/08/16 05:07:41;;;;;;;3.13;3.00;;;18.00;99.90;;;18.36;87.60;101933.47;5071009;28;20095;-70
2023/08/16 05:10:10;;;;;;;2.85;2.75;;;18.00;99.90;;;18.62;86.82;101928.47;5071233;28;20414;-70
2023/08/16 05:12:38;;;;;;;3.75;3.60;;;18.20;99.90;;;18.66;86.16;101935.56;5055400;28;20048;-70
2023/08/16 05:15:09;;;;;;;3.03;2.92;;;18.30;99.90;;;18.48;85.71;101935.94;5055198;28;20049;-70
2023/08/16 05:17:39;;;;;;;3.05;2.95;;;18.20;99.90;;;18.19;85.73;101946.28;5062035;28;20068;-70
2023/08/16 05:20:11;;;;;;;2.85;2.75;;;17.90;99.90;;;18.22;86.49;101940.88;5064128;28;20053;-71
2023/08/16 05:22:39;;;;;;;3.25;3.05;;;17.90;99.90;;;18.11;87.30;101925.91;5071312;28;20056;-69
2023/08/16 05:25:09;;;;;;;2.50;2.40;;;17.90;99.90;;;18.27;87.09;101949.72;5066460;28;20545;-71
2023/08/16 05:27:37;;;;;;;2.75;2.65;;;17.90;99.90;;;18.23;86.47;101947.13;5063134;28;20045;-71
2023/08/16 05:30:07;;;;;;;2.70;2.60;;;17.90;99.90;;;18.32;87.08;101950.50;5055010;28;20497;-70
2023/08/16 05:32:36;;;;;;;3.03;2.92;;;17.90;99.90;;;18.32;88.28;101922.81;5055451;28;20037;-71
2023/08/16 05:35:05;;;;;;;4.30;4.00;;;18.00;99.90;;;18.58;89.06;101939.31;5054972;28;20565;-70
2023/08/16 05:37:35;;;;;;;2.78;2.67;;;18.20;99.90;;;18.81;89.03;101953.13;5064209;28;20553;-72
2023/08/16 05:40:05;;;;;;;3.00;2.90;;;18.40;99.90;;;19.04;88.88;101956.22;5063225;28;20047;-71
2023/08/16 05:42:34;;;;;;;2.67;2.58;;;18.60;99.90;;;19.17;88.92;101957.69;5066456;28;20064;-71
2023/08/16 05:45:02;;;;;;;2.90;2.80;;;18.70;99.90;;;19.31;88.78;101962.75;5070462;28;20577;-70
2023/08/16 05:47:31;;;;;;;2.92;2.83;;;18.90;99.90;;;19.40;88.51;101954.50;5061830;28;20061;-70
2023/08/16 05:50:00;;;;;;;2.60;2.50;;;19.00;99.90;;;19.48;88.37;101957.91;5055037;28;20484;-70
2023/08/16 05:52:28;;;;;;;4.43;4.13;;;19.10;99.90;;;19.39;88.34;101958.13;5054749;28;20098;-71
2023/08/16 05:54:58;;;;;;;2.53;2.42;;;19.10;99.90;;;19.60;88.38;101963.88;5054421;28;20045;-71
2023/08/16 05:57:27;;;;;;;3.17;3.00;;;19.30;99.90;;;19.58;87.88;101973.75;5055901;28;20052;-70
2023/08/16 05:59:55;;;;;;;2.60;2.50;;;19.30;99.90;;;19.50;88.30;101972.16;5064383;28;20314;-71
2023/08/16 06:02:23;;;;;;;2.85;2.75;;;19.20;99.90;;;19.54;88.39;101974.75;5064618;28;20041;-71
2023/08/16 06:04:53;;;;;;;3.05;2.95;;;19.30;99.90;;;19.49;88.90;101971.28;5063665;28;20048;-70
2023/08/16 06:07:21;;;;;;;3.33;3.22;;;19.20;99.90;;;19.58;89.23;101980.94;5060725;28;20045;-71
2023/08/16 06:09:51;;;;;;;2.80;2.70;;;19.30;99.90;;;19.09;92.47;101980.22;5065295;28;20482;-71
2023/08/16 06:12:21;;;;;;;4.93;4.55;;;18.90;99.90;;;18.92;93.52;101981.50;5053682;28;20450;-71
2023/08/16 06:14:49;;;;;;;3.60;3.40;;;18.60;99.90;;;19.02;94.66;101981.28;5054340;28;20053;-71
2023/08/16 06:17:18;;;;;;;2.63;2.53;;;18.60;99.90;;;18.98;94.48;101974.22;5054050;28;20125;-71
2023/08/16 06:19:46;;;;;;;2.70;2.60;;;18.60;99.90;;;19.39;93.36;101984.97;5055785;28;20449;-71
2023/08/16 06:22:15;;;;;;;3.13;3.03;;;18.90;99.90;;;19.37;91.98;101978.75;5064683;28;20055;-71
2023/08/16 06:24:43;;;;;;;3.00;2.90;;;19.00;99.90;;;19.25;92.08;101939.63;5064450;28;20045;-71
2023/08/16 06:27:12;;;;;;;2.67;2.58;;;19.10;99.90;;;19.83;91.74;101995.53;5063535;28;20098;-74
2023/08/16 06:29:42;;;;;;;2.70;2.60;;;19.40;99.90;;;19.79;90.74;101991.16;5064846;28;20074;-73
2023/08/16 06:32:10;;;;;;;3.33;3.22;;;19.50;99.90;;;20.05;90.39;101993.19;5062113;28;20414;-74
2023/08/16 06:34:39;;;;;;;3.83;3.63;;;19.60;99.90;;;19.92;90.10;101997.13;5061839;28;20055;-75
2023/08/16 06:37:07;;;;;;;2.95;2.85;;;19.60;99.90;;;20.04;89.79;101975.28;5053722;28;20102;-75
2023/08/16 06:39:35;;;;;;;3.00;2.90;;;19.80;99.90;;;20.32;88.24;101995.22;5053723;28;20131;-72
2023/08/16 06:42:05;;;;;;;2.95;2.85;;;19.90;99.90;;;20.31;88.24;101985.34;5054079;28;20143;-67
2023/08/16 06:44:34;;;;;;;2.97;2.88;;;20.00;99.90;;;20.43;87.69;101990.41;5064686;28;20055;-67
2023/08/16 06:47:04;;;;;;;2.92;2.83;;;20.10;99.90;;;20.52;88.87;101982.09;5063794;28;20114;-66
2023/08/16 06:49:32;;;;;;;3.25;3.05;;;20.20;99.90;;;20.64;88.84;101990.72;5059907;28;20483;-66
2023/08/16 06:52:01;;;;;;;3.00;2.90;;;20.30;99.90;;;20.84;88.33;101986.56;5080351;28;20123;-66
2023/08/16 06:54:29;;;;;;;2.85;2.75;;;20.40;99.90;;;21.19;87.38;101994.53;5062299;28;20453;-66
2023/08/16 06:56:58;;;;;;;3.10;3.00;;;20.80;99.90;;;21.10;86.72;101992.13;5065219;28;20044;-66
2023/08/16 06:59:28;;;;;;;2.90;2.80;;;20.80;99.90;;;21.47;86.52;101985.53;5053437;28;20065;-66
2023/08/16 07:01:57;;;;;;;5.10;4.20;;;21.10;99.90;;;21.42;84.37;102000.09;5054008;28;20052;-67
2023/08/16 07:04:27;;;;;;;3.33;3.22;;;21.20;99.90;;;21.11;86.47;101996.56;5053268;28;20057;-68
2023/08/16 07:06:55;;;;;;;4.90;4.50;;;20.90;99.90;;;21.35;87.34;102006.59;5055177;28;20122;-67
2023/08/16 07:09:24;;;;;;;2.90;2.78;;;21.00;99.90;;;21.30;88.15;101995.97;5070257;28;20044;-67
2023/08/16 07:11:52;;;;;;;3.00;2.80;;;20.90;99.90;;;21.47;86.35;102006.19;5064205;28;20531;-66
2023/08/16 07:14:21;;;;;;;3.05;2.95;;;21.10;99.90;;;21.50;86.52;102008.81;5078184;28;20368;-67
2023/08/16 07:16:51;;;;;;;5.05;3.47;;;21.20;99.90;;;21.09;87.13;101976.88;5064600;28;20045;-67
2023/08/16 07:19:20;;;;;;;4.28;3.83;;;21.00;99.90;;;21.25;85.76;101959.34;5061670;28;20457;-69
2023/08/16 07:21:50;;;;;;;4.82;4.43;;;21.10;99.90;;;21.60;85.33;101999.53;5061347;28;20132;-70
2023/08/16 07:24:18;;;;;;;4.32;3.95;;;21.20;99.90;;;21.77;83.68;102004.34;5064229;28;20047;-69
2023/08/16 07:26:47;;;;;;;3.70;3.50;;;21.50;99.90;;;21.88;82.64;102007.59;5062606;28;20106;-70
2023/08/16 07:29:16;;;;;;;2.80;2.70;;;21.60;99.90;;;22.06;82.25;102007.91;5063292;28;20044;-67
2023/08/16 07:31:45;;;;;;;2.67;2.58;;;21.70;99.90;;;22.25;81.68;102013.53;5063608;28;20152;-69
2023/08/16 07:34:14;;;;;;;3.15;3.05;;;22.00;99.90;;;22.61;79.83;102011.41;5062239;28;20080;-68
2023/08/16 07:36:42;;;;;;;2.95;2.75;;;22.30;99.90;;;22.66;77.79;102020.22;5063788;28;20059;-72
2023/08/16 07:39:12;;;;;;;3.10;3.00;;;22.40;99.90;;;22.31;77.96;102016.03;5060970;28;20045;-73
2023/08/16 07:41:41;;;;;;;3.00;2.90;;;22.20;99.90;;;21.88;78.57;102023.78;5052666;28;20044;-74
2023/08/16 07:44:09;;;;;;;3.85;3.65;;;21.80;99.90;;;21.65;79.92;102027.19;5053119;28;20065;-68
2023/08/16 07:46:38;;;;;;;3.60;3.35;;;21.40;99.90;;;21.52;81.31;102028.50;5052846;28;20052;-66
2023/08/16 07:49:07;;;;;;;2.80;2.70;;;21.20;99.90;;;21.45;81.36;102019.72;5054368;28;20064;-68
2023/08/16 07:51:36;;;;;;;3.25;3.15;;;21.20;99.90;;;21.97;80.61;102034.28;5062727;28;20068;-68
2023/08/16 07:54:05;;;;;;;3.22;3.03;;;21.50;99.90;;;21.88;78.03;102035.44;5062949;28;20118;-69
2023/08/16 07:56:35;;;;;;;2.58;2.47;;;21.50;99.90;;;22.05;79.56;102037.56;5061600;28;20047;-70
2023/08/16 07:59:04;;;;;;;2.88;2.78;;;21.60;99.90;;;21.82;78.46;102041.03;5063841;28;20095;-68
2023/08/16 08:01:32;;;;;;;2.80;2.70;;;21.50;99.90;;;22.17;77.30;102038.06;5061278;28;20044;-67
2023/08/16 08:04:01;;;;;;;2.95;2.85;;;21.80;99.90;;;22.26;76.14;102042.28;5051610;28;20118;-67
2023/08/16 08:06:29;;;;;;;3.72;3.53;;;21.90;99.90;;;22.12;75.69;102042.72;5062917;28;20586;-70
2023/08/16 08:08:57;;;;;;;3.35;3.15;;;21.80;99.90;;;21.76;76.81;102033.09;5052175;28;20067;-68
2023/08/16 08:11:26;;;;;;;3.20;3.00;;;21.50;99.90;;;21.72;76.85;102031.44;5057227;28;20061;-67
2023/08/16 08:13:56;;;;;;;2.70;2.60;;;21.40;99.90;;;21.94;76.98;102035.25;5057801;28;20156;-67
2023/08/16 08:16:25;;;;;;;;;;;21.60;99.90;;;22.40;75.40;102048.94;5062767;28;20044;-67
2023/08/16 08:18:53;;;;;;;3.90;3.60;;;22.00;99.90;;;22.13;72.82;102038.19;5062852;28;19935;-67
2023/08/16 08:21:21;;;;;;;3.92;3.72;;;21.90;99.90;;;22.44;74.41;102047.91;5061110;28;20081;-67
2023/08/16 08:23:50;;;;;;;2.67;2.58;;;22.00;99.90;;;22.56;73.48;102045.72;5063579;28;20079;-66
2023/08/16 08:26:18;;;;;;;2.85;2.75;;;22.20;99.90;;;22.35;72.18;102050.94;5060301;28;20186;-68
2023/08/16 08:28:47;;;;;;;3.42;3.22;;;22.10;99.90;;;22.37;70.63;102046.38;5051787;28;20132;-69
2023/08/16 08:31:16;;;;;;;2.85;2.75;;;22.00;99.90;;;22.54;71.00;102048.47;5051772;28;20049;-71
2023/08/16 08:33:45;;;;;;;2.75;2.65;;;22.10;99.90;;;22.74;69.04;102056.78;5051317;28;20498;-72
2023/08/16 08:36:14;;;;;;;2.80;2.70;;;22.40;99.90;;;22.72;67.23;102049.66;5053306;28;20049;-71
2023/08/16 08:38:43;;;;;;;6.05;2.75;;;22.40;99.90;;;22.61;67.02;102047.34;5062413;28;20414;-70
2023/08/16 08:41:11;;;;;;;2.50;2.40;;;22.40;99.90;;;22.55;68.03;102060.16;5062591;28;20049;-71
2023/08/16 08:43:41;;;;;;;2.50;2.40;;;22.20;99.90;;;22.90;67.11;102044.47;5061796;28;20041;-72
2023/08/16 08:46:30;;;;;;;2.65;2.55;;;22.50;99.90;;;22.51;65.27;102040.50;5061991;28;20448;-69
2023/08/16 08:49:01;;;;;;;3.00;2.90;;;22.40;99.90;;;22.49;66.34;102053.16;5068745;28;20052;-69
2023/08/16 08:51:31;;;;;;;2.67;2.58;;;22.30;99.90;;;22.74;67.15;102061.28;5058845;28;20052;-71
2023/08/16 08:54:00;;;;;;;2.42;2.33;;;22.30;99.90;;;23.10;65.39;102068.03;5063906;28;20044;-65
2023/08/16 08:56:29;;;;;;;2.42;2.33;;;22.70;99.90;;;23.26;63.94;102063.84;5063708;28;20044;-69
2023/08/16 08:59:01;;;;;;;3.17;2.97;;;22.90;99.90;;;23.07;62.24;102070.88;5061174;28;20411;-73
2023/08/16 09:01:46;;;;;;;2.35;2.25;;;22.90;99.90;;;23.09;65.48;102071.69;5061326;28;20056;-78
2023/08/16 09:04:15;;;;;;;2.75;2.65;;;22.70;99.90;;;23.15;62.96;102074.16;5052148;28;20136;-70
2023/08/16 09:06:45;;;;;;;2.47;2.38;;;22.90;99.90;;;23.14;62.81;102072.41;5052540;28;20391;-70
2023/08/16 09:09:14;;;;;;;2.65;2.55;;;22.90;99.90;;;22.80;62.16;102061.06;5052330;28;20094;-70
2023/08/16 09:11:43;;;;;;;2.50;2.40;;;22.50;99.90;;;23.11;63.29;102073.38;5053240;28;20052;-69
2023/08/16 09:14:12;;;;;;;4.15;2.60;;;22.70;99.90;;;23.32;63.48;102081.66;5061857;28;20098;-68
2023/08/16 09:16:40;;;;;;;2.40;2.30;;;22.90;99.90;;;23.02;62.84;102076.44;5062061;28;20048;-67
2023/08/16 09:19:14;;;;;;;3.00;2.90;;;22.70;99.90;;;23.12;65.10;102071.56;5060685;28;20064;-69
2023/08/16 09:21:43;;;;;;;2.53;2.42;;;22.70;99.90;;;23.64;65.16;102068.66;5051543;28;20431;-69
2023/08/16 09:24:11;;;;;;;2.40;2.30;;;23.20;99.90;;;23.39;63.52;101969.72;5051681;28;20068;-68
2023/08/16 09:26:41;;;;;;;2.45;2.35;;;23.60;99.90;;;24.28;63.27;102074.19;5061644;28;20049;-68
2023/08/16 09:29:09;;;;;;;2.20;2.10;;;23.90;99.90;;;24.07;63.91;102068.75;5051704;28;20064;-68
2023/08/16 09:31:42;;;;;;;2.35;2.25;;;23.80;99.90;;;24.23;63.09;102074.41;5075549;28;20056;-68
2023/08/16 09:34:14;;;;;;;2.60;2.50;;;23.90;99.90;;;24.47;59.81;102072.47;5062343;28;20036;-68
2023/08/16 09:36:47;;;;;;;2.20;2.10;;;24.20;99.90;;;25.00;62.67;102058.41;5060094;28;20049;-67
2023/08/16 09:39:16;;;;;;;2.05;1.95;;;24.70;99.90;;;25.33;60.33;102066.81;5051382;28;20486;-67
2023/08/16 09:41:49;;;;;;;2.58;2.47;;;25.00;99.90;;;25.59;58.92;102069.19;5051517;28;20059;-67
2023/08/16 09:44:19;;;;;;;2.00;1.90;;;25.40;99.90;;;25.80;57.18;102068.16;5051412;28;20567;-67
2023/08/16 09:46:48;;;;;;;1.88;1.83;;;25.70;99.90;;;25.58;56.98;102070.16;5057396;28;20041;-63
2023/08/16 09:49:23;;;;;;;2.10;2.00;;;25.50;99.90;;;25.70;55.77;102066.88;5063381;28;20140;-63
2023/08/16 09:51:52;;;;;;;2.45;2.35;;;25.60;99.90;;;24.64;59.25;102054.56;5079028;28;20115;-66
2023/08/16 09:54:24;;;;;;;2.20;2.10;;;24.70;99.90;;;24.84;58.36;102041.06;5065578;28;20045;-75
2023/08/16 09:56:54;;;;;;;2.00;1.90;;;24.60;99.90;;;25.14;58.68;102068.59;5064348;28;20402;-78
2023/08/16 09:59:27;;;;;;;1.95;1.85;;;24.80;99.90;;;24.56;59.60;102061.28;5064056;28;20052;-75
2023/08/16 10:01:58;;;;;;;2.20;2.10;;;24.30;99.90;;;25.16;59.50;102058.59;5061683;28;20052;-73
2023/08/16 10:04:32;;;;;;;2.25;2.15;;;24.80;99.90;;;25.31;58.43;102057.88;5055219;28;20037;-73
2023/08/16 10:07:04;;;;;;;2.67;2.47;;;25.00;99.90;;;25.10;56.32;102060.69;5054925;28;20057;-75
2023/08/16 10:09:35;;;;;;;2.78;2.65;;;25.00;99.90;;;24.48;58.27;102033.66;5055180;28;20041;-74
2023/08/16 10:12:06;;;;;;;2.38;2.28;;;24.50;99.90;;;24.30;60.54;102059.69;5061582;28;20052;-72
2023/08/16 10:14:37;;;;;;;2.50;2.40;;;24.10;99.90;;;24.16;57.68;102052.13;5062838;28;20049;-73
2023/08/16 10:17:07;;;;;;;2.25;2.15;;;23.90;99.90;;;24.03;59.86;102056.31;5063231;28;20124;-74
2023/08/16 10:19:40;;;;;;;6.17;3.70;;;23.70;99.90;;;23.65;60.08;102061.47;5066087;28;20071;-73
2023/08/16 10:22:27;;;;;;;2.70;2.60;;;23.40;99.90;;;23.91;60.03;102040.53;5065534;28;20283;-75